createdAt,value
2022-08-26T00:02:01.535Z,17.97
2022-08-26T00:04:31.449Z,17.91
2022-08-26T00:07:00.292Z,17.86
2022-08-26T00:09:29.097Z,17.83
2022-08-26T00:11:57.442Z,17.80
2022-08-26T00:14:31.209Z,17.79
2022-08-26T00:17:00.483Z,17.80
2022-08-26T00:19:29.255Z,17.78
2022-08-26T00:21:57.578Z,17.75
2022-08-26T00:24:26.199Z,17.70
2022-08-26T00:26:54.511Z,17.64
2022-08-26T00:29:22.769Z,17.59
2022-08-26T00:31:51.790Z,17.57
2022-08-26T00:34:20.518Z,17.62
2022-08-26T00:36:52.092Z,17.63
2022-08-26T00:39:21.497Z,17.62
2022-08-26T00:41:50.838Z,17.56
2022-08-26T00:44:19.502Z,17.49
2022-08-26T00:46:52.837Z,17.41
2022-08-26T00:49:35.769Z,17.34
2022-08-26T00:52:09.802Z,17.30
2022-08-26T00:54:46.263Z,17.27
2022-08-26T00:57:18.253Z,17.25
2022-08-26T00:59:50.965Z,17.24
2022-08-26T01:02:21.319Z,17.23
2022-08-26T01:04:55.604Z,17.21
2022-08-26T01:07:26.360Z,17.18
2022-08-26T01:09:56.430Z,17.15
2022-08-26T01:12:27.938Z,17.10
2022-08-26T01:14:56.329Z,17.06
2022-08-26T01:17:25.047Z,17.03
2022-08-26T01:20:00.031Z,17.00
2022-08-26T01:22:38.768Z,17.00
2022-08-26T01:25:07.817Z,17.01
2022-08-26T01:27:36.520Z,16.99
2022-08-26T01:30:07.117Z,16.96
2022-08-26T01:32:36.059Z,16.95
2022-08-26T01:35:09.313Z,17.01
2022-08-26T01:37:40.418Z,17.10
2022-08-26T01:40:18.305Z,17.21
2022-08-26T01:42:48.562Z,17.30
2022-08-26T01:45:22.851Z,17.36
2022-08-26T01:47:56.797Z,17.36
2022-08-26T01:50:30.409Z,17.35
2022-08-26T01:53:06.239Z,17.25
2022-08-26T01:55:36.880Z,17.15
2022-08-26T01:58:16.996Z,17.06
2022-08-26T02:00:46.186Z,16.99
2022-08-26T02:03:17.281Z,16.91
2022-08-26T02:05:51.486Z,16.87
2022-08-26T02:08:25.311Z,16.83
2022-08-26T02:10:55.389Z,16.80
2022-08-26T02:13:26.733Z,16.75
2022-08-26T02:15:57.601Z,16.70
2022-08-26T02:18:27.931Z,16.65
2022-08-26T02:20:57.203Z,16.64
2022-08-26T02:23:26.167Z,16.64
2022-08-26T02:26:00.302Z,16.68
2022-08-26T02:28:35.509Z,16.74
2022-08-26T02:31:04.684Z,16.71
2022-08-26T02:33:33.331Z,16.68
2022-08-26T02:36:05.746Z,16.70
2022-08-26T02:38:37.302Z,16.76
2022-08-26T02:41:09.679Z,16.76
2022-08-26T02:43:38.751Z,16.71
2022-08-26T02:46:07.136Z,16.64
2022-08-26T02:48:35.523Z,16.57
2022-08-26T02:51:04.589Z,16.52
2022-08-26T02:53:35.509Z,16.46
2022-08-26T02:56:07.285Z,16.43
2022-08-26T02:58:36.066Z,16.41
2022-08-26T03:01:05.649Z,16.37
2022-08-26T03:03:34.834Z,16.30
2022-08-26T03:06:03.398Z,16.21
2022-08-26T03:08:31.695Z,16.17
2022-08-26T03:11:01.537Z,16.14
2022-08-26T03:13:30.512Z,16.13
2022-08-26T03:16:01.081Z,16.12
2022-08-26T03:18:29.909Z,16.11
2022-08-26T03:20:59.213Z,16.07
2022-08-26T03:23:27.649Z,16.01
2022-08-26T03:25:56.981Z,15.96
2022-08-26T03:28:27.238Z,15.94
2022-08-26T03:30:56.548Z,15.98
2022-08-26T03:33:26.386Z,15.98
2022-08-26T03:35:55.635Z,16.00
2022-08-26T03:38:25.302Z,16.03
2022-08-26T03:40:55.755Z,16.03
2022-08-26T03:43:26.563Z,16.01
2022-08-26T03:45:54.974Z,16.00
2022-08-26T03:48:23.301Z,16.07
2022-08-26T03:50:51.686Z,16.14
2022-08-26T03:53:20.560Z,16.19
2022-08-26T03:55:51.841Z,16.19
2022-08-26T03:58:20.600Z,16.13
2022-08-26T04:00:49.625Z,16.07
2022-08-26T04:03:39.134Z,16.01
2022-08-26T04:06:08.704Z,15.96
2022-08-26T04:08:38.361Z,15.94
2022-08-26T04:11:07.949Z,15.94
2022-08-26T04:13:38.766Z,15.96
2022-08-26T04:16:07.514Z,15.99
2022-08-26T04:18:42.084Z,15.98
2022-08-26T04:21:15.601Z,15.97
2022-08-26T04:23:47.079Z,15.96
2022-08-26T04:26:19.119Z,16.00
2022-08-26T04:28:47.570Z,16.02
2022-08-26T04:31:19.144Z,16.07
2022-08-26T04:33:49.564Z,16.14
2022-08-26T04:36:20.196Z,16.24
2022-08-26T04:38:50.214Z,16.32
2022-08-26T04:41:20.945Z,16.41
2022-08-26T04:43:50.052Z,16.51
2022-08-26T04:46:23.813Z,16.56
2022-08-26T04:48:54.574Z,16.58
2022-08-26T04:51:27.027Z,16.63
2022-08-26T04:53:57.948Z,16.75
2022-08-26T04:56:27.236Z,16.89
2022-08-26T04:58:56.716Z,17.04
2022-08-26T05:01:25.069Z,17.18
2022-08-26T05:03:54.406Z,17.24
2022-08-26T05:06:22.885Z,17.27
2022-08-26T05:08:51.378Z,17.30
2022-08-26T05:11:21.979Z,17.32
2022-08-26T05:13:50.462Z,17.39
2022-08-26T05:16:18.823Z,17.51
2022-08-26T05:18:47.541Z,17.62
2022-08-26T05:21:21.944Z,17.78
2022-08-26T05:23:51.413Z,18.12
2022-08-26T05:26:23.216Z,18.70
2022-08-26T05:28:54.698Z,19.25
2022-08-26T05:31:26.497Z,19.70
2022-08-26T05:33:56.976Z,20.00
2022-08-26T05:36:28.446Z,20.17
2022-08-26T05:38:57.598Z,20.33
2022-08-26T05:41:36.525Z,20.45
2022-08-26T05:44:09.458Z,20.58
2022-08-26T05:46:39.566Z,20.68
2022-08-26T05:49:12.621Z,20.81
2022-08-26T05:51:45.751Z,20.98
2022-08-26T05:54:14.878Z,21.13
2022-08-26T05:56:51.172Z,21.23
2022-08-26T05:59:24.121Z,21.32
2022-08-26T06:01:54.048Z,21.40
2022-08-26T06:04:24.984Z,21.48
2022-08-26T06:06:55.970Z,21.54
2022-08-26T06:09:26.113Z,21.59
2022-08-26T06:11:55.384Z,21.63
2022-08-26T06:14:25.419Z,21.69
2022-08-26T06:16:55.126Z,21.75
2022-08-26T06:19:23.782Z,21.82
2022-08-26T06:21:54.733Z,21.89
2022-08-26T06:24:42.149Z,21.98
2022-08-26T06:27:13.016Z,22.08
2022-08-26T06:29:42.042Z,22.21
2022-08-26T06:32:10.458Z,22.34
2022-08-26T06:34:39.352Z,22.45
2022-08-26T06:37:08.409Z,22.57
2022-08-26T06:39:41.035Z,22.69
2022-08-26T06:42:10.896Z,22.81
2022-08-26T06:44:40.982Z,22.93
2022-08-26T06:47:09.758Z,23.02
2022-08-26T06:49:38.127Z,23.14
2022-08-26T06:52:08.207Z,23.25
2022-08-26T06:54:40.993Z,23.35
2022-08-26T06:57:10.068Z,23.46
2022-08-26T06:59:38.691Z,23.55
2022-08-26T07:02:08.132Z,23.65
2022-08-26T07:04:36.936Z,23.75
2022-08-26T07:07:05.333Z,23.87
2022-08-26T07:09:34.829Z,24.02
2022-08-26T07:12:06.869Z,24.11
2022-08-26T07:14:35.781Z,24.22
2022-08-26T07:17:04.094Z,24.31
2022-08-26T07:19:32.538Z,24.38
2022-08-26T07:22:04.879Z,24.46
2022-08-26T07:24:35.477Z,24.55
2022-08-26T07:27:07.216Z,24.65
2022-08-26T07:29:39.185Z,24.73
2022-08-26T07:32:09.327Z,24.77
2022-08-26T07:34:38.800Z,24.85
2022-08-26T07:37:08.825Z,24.91
2022-08-26T07:39:37.509Z,24.93
2022-08-26T07:42:13.253Z,24.95
2022-08-26T07:44:44.696Z,25.02
2022-08-26T07:47:25.004Z,25.10
2022-08-26T07:49:56.819Z,25.24
2022-08-26T07:52:27.387Z,25.36
2022-08-26T07:54:58.535Z,25.50
2022-08-26T07:57:28.310Z,25.69
2022-08-26T07:59:57.349Z,25.86
2022-08-26T08:02:27.957Z,26.02
2022-08-26T08:04:57.494Z,26.19
2022-08-26T08:07:38.746Z,26.34
2022-08-26T08:10:16.626Z,26.47
2022-08-26T08:12:45.492Z,26.62
2022-08-26T08:15:14.942Z,26.76
2022-08-26T08:17:45.862Z,26.86
2022-08-26T08:20:14.820Z,26.99
2022-08-26T08:22:44.115Z,27.19
2022-08-26T08:25:13.283Z,27.36
2022-08-26T08:27:44.492Z,27.46
2022-08-26T08:30:15.504Z,27.53
2022-08-26T08:32:52.280Z,27.57
2022-08-26T08:35:25.265Z,27.59
2022-08-26T08:37:54.912Z,27.62
2022-08-26T08:40:26.515Z,27.71
2022-08-26T08:42:59.358Z,28.00
2022-08-26T08:45:37.104Z,28.41
2022-08-26T08:48:12.664Z,28.95
2022-08-26T08:50:45.295Z,29.51
2022-08-26T08:53:18.537Z,29.90
2022-08-26T08:56:00.227Z,30.33
2022-08-26T08:58:42.709Z,30.74
2022-08-26T09:01:20.413Z,31.10
2022-08-26T09:03:55.361Z,31.43
2022-08-26T09:06:24.968Z,31.70
2022-08-26T09:08:57.042Z,31.97
2022-08-26T09:11:25.360Z,32.16
2022-08-26T09:13:55.507Z,32.15
2022-08-26T09:16:33.021Z,32.22
2022-08-26T09:19:05.691Z,32.42
2022-08-26T09:21:34.354Z,32.65
2022-08-26T09:24:02.952Z,32.88
2022-08-26T09:26:44.797Z,33.07
2022-08-26T09:29:22.841Z,33.08
2022-08-26T09:31:52.359Z,33.05
2022-08-26T09:34:23.257Z,33.07
2022-08-26T09:36:53.197Z,33.11
2022-08-26T09:39:37.556Z,33.16
2022-08-26T09:42:12.709Z,33.13
2022-08-26T09:44:57.764Z,33.12
2022-08-26T09:47:31.542Z,33.10
2022-08-26T09:50:09.893Z,32.98
2022-08-26T09:52:42.589Z,32.99
2022-08-26T09:55:21.017Z,32.89
2022-08-26T09:57:51.450Z,32.84
2022-08-26T10:00:29.868Z,32.68
2022-08-26T10:03:00.191Z,32.63
2022-08-26T10:05:34.683Z,32.59
2022-08-26T10:08:19.962Z,32.51
2022-08-26T10:10:53.408Z,32.41
2022-08-26T10:13:29.537Z,32.28
2022-08-26T10:16:10.716Z,32.26
2022-08-26T10:18:44.710Z,32.22
2022-08-26T10:21:18.177Z,32.13
2022-08-26T10:23:51.691Z,32.17
2022-08-26T10:26:25.296Z,32.25
2022-08-26T10:29:03.073Z,32.31
2022-08-26T10:31:40.667Z,32.41
2022-08-26T10:34:12.524Z,32.54
2022-08-26T10:37:14.383Z,32.69
2022-08-26T10:39:57.159Z,32.82
2022-08-26T10:42:34.732Z,33.01
2022-08-26T10:45:11.908Z,33.23
2022-08-26T10:47:51.912Z,33.41
2022-08-26T10:50:24.695Z,33.39
2022-08-26T10:53:00.210Z,33.33
2022-08-26T10:55:35.589Z,33.40
2022-08-26T10:58:26.326Z,33.66
2022-08-26T11:01:27.720Z,33.83
2022-08-26T11:04:04.473Z,34.12
2022-08-26T11:06:33.201Z,34.42
2022-08-26T11:09:08.067Z,34.64
2022-08-26T11:11:50.605Z,34.72
2022-08-26T11:14:34.233Z,34.85
2022-08-26T11:17:34.890Z,35.15
2022-08-26T11:20:09.150Z,35.39
2022-08-26T11:22:48.078Z,35.50
2022-08-26T11:25:18.214Z,35.65
2022-08-26T11:27:56.925Z,35.86
2022-08-26T11:30:57.007Z,36.13
2022-08-26T11:33:57.568Z,36.21
2022-08-26T11:36:42.981Z,35.91
2022-08-26T11:39:19.778Z,35.61
2022-08-26T11:41:52.627Z,35.47
2022-08-26T11:44:26.476Z,35.50
2022-08-26T11:46:57.473Z,35.66
2022-08-26T11:49:27.694Z,35.80
2022-08-26T11:52:10.713Z,35.78
2022-08-26T11:54:39.655Z,35.79
2022-08-26T11:57:13.404Z,35.86
2022-08-26T11:59:42.945Z,36.06
2022-08-26T12:02:16.772Z,36.20
2022-08-26T12:04:50.739Z,36.19
2022-08-26T12:07:24.396Z,36.17
2022-08-26T12:09:56.665Z,36.03
2022-08-26T12:12:34.525Z,35.75
2022-08-26T12:15:21.732Z,35.28
2022-08-26T12:17:54.511Z,34.85
2022-08-26T12:20:45.447Z,34.43
2022-08-26T12:23:26.316Z,34.02
2022-08-26T12:26:07.217Z,33.75
2022-08-26T12:28:43.628Z,33.62
2022-08-26T12:31:19.436Z,33.50
2022-08-26T12:33:49.120Z,33.45
2022-08-26T12:36:22.320Z,33.47
2022-08-26T12:38:50.767Z,33.50
2022-08-26T12:41:42.405Z,33.61
2022-08-26T12:44:34.641Z,33.74
2022-08-26T12:47:08.751Z,33.87
2022-08-26T12:49:39.282Z,34.03
2022-08-26T12:52:29.588Z,34.07
2022-08-26T12:55:00.822Z,34.10
2022-08-26T12:57:32.647Z,34.11
2022-08-26T13:00:30.343Z,34.07
2022-08-26T13:03:01.281Z,34.04
2022-08-26T13:05:33.012Z,34.07
2022-08-26T13:08:13.430Z,34.06
2022-08-26T13:10:44.845Z,34.08
2022-08-26T13:13:14.680Z,34.08
2022-08-26T13:15:44.121Z,34.03
2022-08-26T13:18:12.466Z,34.04
2022-08-26T13:20:44.288Z,33.97
2022-08-26T13:23:13.058Z,33.91
2022-08-26T13:25:42.265Z,33.89
2022-08-26T13:28:10.718Z,33.84
2022-08-26T13:30:40.975Z,33.78
2022-08-26T13:33:13.744Z,33.69
2022-08-26T13:35:43.465Z,33.64
2022-08-26T13:38:14.480Z,33.66
2022-08-26T13:40:59.488Z,33.69
2022-08-26T13:43:28.633Z,33.69
2022-08-26T13:45:57.011Z,33.66
2022-08-26T13:48:25.750Z,33.56
2022-08-26T13:50:54.255Z,33.37
2022-08-26T13:53:23.086Z,33.17
2022-08-26T13:55:51.644Z,33.01
2022-08-26T13:58:20.181Z,32.79
2022-08-26T14:00:49.006Z,32.58
2022-08-26T14:03:17.877Z,32.41
2022-08-26T14:05:46.321Z,32.22
2022-08-26T14:08:14.698Z,32.06
2022-08-26T14:10:44.638Z,32.03
2022-08-26T14:13:13.879Z,32.07
2022-08-26T14:15:42.736Z,32.07
2022-08-26T14:18:15.544Z,32.05
2022-08-26T14:20:49.239Z,32.10
2022-08-26T14:23:18.651Z,32.16
2022-08-26T14:25:47.029Z,32.21
2022-08-26T14:28:15.371Z,32.26
2022-08-26T14:30:47.326Z,32.28
2022-08-26T14:33:16.199Z,32.28
2022-08-26T14:35:48.814Z,32.29
2022-08-26T14:38:18.043Z,32.26
2022-08-26T14:40:46.367Z,32.19
2022-08-26T14:43:15.519Z,32.10
2022-08-26T14:45:45.187Z,32.01
2022-08-26T14:48:13.656Z,31.94
2022-08-26T14:50:42.291Z,31.93
2022-08-26T14:53:29.435Z,31.90
2022-08-26T14:55:58.817Z,31.87
2022-08-26T14:58:32.920Z,31.79
2022-08-26T15:01:04.277Z,31.71
2022-08-26T15:03:33.001Z,31.68
2022-08-26T15:06:01.371Z,31.63
2022-08-26T15:08:31.486Z,31.63
2022-08-26T15:11:00.251Z,31.62
2022-08-26T15:13:28.638Z,31.59
2022-08-26T15:15:57.010Z,31.57
2022-08-26T15:18:25.961Z,31.54
2022-08-26T15:20:54.403Z,31.52
2022-08-26T15:23:22.760Z,31.49
2022-08-26T15:25:51.140Z,31.41
2022-08-26T15:28:19.453Z,31.32
2022-08-26T15:30:50.986Z,31.20
2022-08-26T15:33:20.855Z,31.10
2022-08-26T15:35:49.140Z,31.01
2022-08-26T15:38:17.858Z,30.92
2022-08-26T15:40:46.858Z,30.83
2022-08-26T15:43:28.146Z,30.75
2022-08-26T15:45:58.161Z,30.63
2022-08-26T15:48:27.880Z,30.53
2022-08-26T15:51:02.328Z,30.45
2022-08-26T15:53:33.769Z,30.39
2022-08-26T15:56:02.840Z,30.34
2022-08-26T15:58:31.743Z,30.30
2022-08-26T16:01:00.847Z,30.24
2022-08-26T16:03:29.870Z,30.17
2022-08-26T16:05:58.605Z,30.08
2022-08-26T16:08:27.050Z,30.04
2022-08-26T16:11:03.513Z,30.00
2022-08-26T16:13:39.586Z,29.98
2022-08-26T16:16:09.621Z,29.94
2022-08-26T16:18:38.625Z,29.90
2022-08-26T16:21:13.328Z,29.84
2022-08-26T16:23:45.243Z,29.78
2022-08-26T16:26:26.141Z,29.71
2022-08-26T16:28:54.909Z,29.63
2022-08-26T16:31:23.579Z,29.56
2022-08-26T16:33:52.291Z,29.48
2022-08-26T16:36:20.731Z,29.39
2022-08-26T16:38:54.236Z,29.29
2022-08-26T16:41:23.677Z,29.19
2022-08-26T16:43:52.120Z,29.11
2022-08-26T16:46:23.202Z,29.04
2022-08-26T16:48:52.147Z,28.97
2022-08-26T16:51:23.254Z,28.90
2022-08-26T16:53:53.423Z,28.81
2022-08-26T16:56:24.268Z,28.75
2022-08-26T16:59:02.717Z,28.67
2022-08-26T17:01:31.532Z,28.58
2022-08-26T17:04:00.146Z,28.48
2022-08-26T17:06:29.494Z,28.37
2022-08-26T17:08:58.052Z,28.25
2022-08-26T17:11:26.865Z,28.13
2022-08-26T17:13:55.305Z,28.03
2022-08-26T17:16:26.814Z,27.92
2022-08-26T17:18:56.437Z,27.81
2022-08-26T17:21:25.932Z,27.68
2022-08-26T17:23:54.776Z,27.57
2022-08-26T17:26:23.184Z,27.45
2022-08-26T17:28:51.572Z,27.34
2022-08-26T17:31:21.234Z,27.22
2022-08-26T17:33:53.915Z,27.08
2022-08-26T17:36:27.437Z,26.95
2022-08-26T17:38:58.237Z,26.83
2022-08-26T17:41:27.379Z,26.71
2022-08-26T17:43:56.581Z,26.58
2022-08-26T17:46:25.443Z,26.44
2022-08-26T17:48:54.355Z,26.30
2022-08-26T17:51:23.990Z,26.15
2022-08-26T17:53:53.190Z,25.99
2022-08-26T17:56:25.149Z,25.83
2022-08-26T17:58:55.554Z,25.66
2022-08-26T18:01:26.904Z,25.50
2022-08-26T18:04:00.179Z,25.33
2022-08-26T18:06:30.360Z,25.18
2022-08-26T18:09:00.029Z,25.01
2022-08-26T18:11:29.542Z,24.86
2022-08-26T18:13:58.549Z,24.73
2022-08-26T18:16:27.535Z,24.61
2022-08-26T18:18:55.968Z,24.54
2022-08-26T18:21:27.083Z,24.43
2022-08-26T18:23:56.342Z,24.29
2022-08-26T18:26:27.425Z,24.13
2022-08-26T18:28:56.845Z,24.00
2022-08-26T18:31:26.249Z,23.86
2022-08-26T18:33:55.359Z,23.73
2022-08-26T18:36:26.039Z,23.60
2022-08-26T18:38:55.091Z,23.49
2022-08-26T18:41:25.763Z,23.40
2022-08-26T18:43:54.676Z,23.31
2022-08-26T18:46:25.493Z,23.24
2022-08-26T18:48:56.535Z,23.17
2022-08-26T18:51:32.399Z,23.09
2022-08-26T18:54:02.775Z,23.00
2022-08-26T18:56:32.002Z,22.92
2022-08-26T18:59:01.027Z,22.83
2022-08-26T19:01:31.299Z,22.75
2022-08-26T19:04:02.406Z,22.67
2022-08-26T19:06:34.834Z,22.59
2022-08-26T19:09:04.985Z,22.51
2022-08-26T19:11:37.401Z,22.45
2022-08-26T19:14:13.480Z,22.38
2022-08-26T19:16:44.286Z,22.28
2022-08-26T19:19:13.081Z,22.19
2022-08-26T19:21:44.370Z,22.12
2022-08-26T19:24:16.835Z,22.03
2022-08-26T19:26:47.089Z,21.94
2022-08-26T19:31:50.232Z,21.77
2022-08-26T19:34:20.753Z,21.71
2022-08-26T19:36:52.500Z,21.63
2022-08-26T19:39:21.261Z,21.56
2022-08-26T19:41:49.737Z,21.49
2022-08-26T19:44:35.522Z,21.43
2022-08-26T19:47:06.465Z,21.37
2022-08-26T19:49:35.030Z,21.30
2022-08-26T19:52:05.452Z,21.24
2022-08-26T19:54:34.594Z,21.18
2022-08-26T19:57:03.376Z,21.13
2022-08-26T19:59:32.457Z,21.09
2022-08-26T20:02:01.953Z,21.05
2022-08-26T20:04:31.784Z,21.01
2022-08-26T20:07:01.751Z,20.97
2022-08-26T20:09:31.077Z,20.94
2022-08-26T20:11:59.791Z,20.90
2022-08-26T20:14:29.282Z,20.86
2022-08-26T20:16:57.948Z,20.82
2022-08-26T20:19:44.777Z,20.75
2022-08-26T20:22:13.544Z,20.66
2022-08-26T20:24:44.449Z,20.57
2022-08-26T20:27:13.418Z,20.51
2022-08-26T20:29:43.043Z,20.45
2022-08-26T20:32:11.795Z,20.43
2022-08-26T20:34:40.499Z,20.41
2022-08-26T20:37:09.205Z,20.38
2022-08-26T20:39:37.522Z,20.34
2022-08-26T20:42:06.512Z,20.29
2022-08-26T20:44:54.899Z,20.24
2022-08-26T20:47:23.783Z,20.19
2022-08-26T20:49:54.456Z,20.15
2022-08-26T20:52:23.305Z,20.12
2022-08-26T20:54:51.717Z,20.09
2022-08-26T20:57:21.739Z,20.05
2022-08-26T20:59:50.255Z,20.03
2022-08-26T21:02:18.682Z,19.99
2022-08-26T21:04:47.067Z,19.97
2022-08-26T21:07:15.568Z,19.95
2022-08-26T21:09:46.431Z,19.93
2022-08-26T21:12:14.827Z,19.89
2022-08-26T21:14:47.739Z,19.85
2022-08-26T21:17:18.178Z,19.82
2022-08-26T21:19:46.543Z,19.78
2022-08-26T21:22:15.056Z,19.73
2022-08-26T21:24:43.962Z,19.70
2022-08-26T21:27:12.413Z,19.72
2022-08-26T21:29:46.476Z,19.74
2022-08-26T21:32:17.503Z,19.74
2022-08-26T21:34:46.445Z,19.73
2022-08-26T21:37:16.411Z,19.73
2022-08-26T21:39:45.365Z,19.73
2022-08-26T21:42:14.213Z,19.71
2022-08-26T21:44:44.295Z,19.70
2022-08-26T21:47:15.101Z,19.69
2022-08-26T21:55:17.457Z,19.65
2022-08-26T21:57:45.875Z,19.63
2022-08-26T22:00:18.590Z,19.63
2022-08-26T22:02:49.789Z,19.64
2022-08-26T22:05:18.698Z,19.67
2022-08-26T22:07:47.239Z,19.70
2022-08-26T22:10:15.580Z,19.72
2022-08-26T22:12:44.129Z,19.74
2022-08-26T22:15:13.425Z,19.79
2022-08-26T22:17:42.113Z,19.83
2022-08-26T22:20:16.691Z,19.87
2022-08-26T22:22:45.623Z,19.90
2022-08-26T22:25:14.259Z,19.96
2022-08-26T22:27:43.115Z,20.02
2022-08-26T22:30:13.024Z,20.10
2022-08-26T22:32:43.203Z,20.14
2022-08-26T22:35:28.439Z,20.17
2022-08-26T22:37:58.864Z,20.17
2022-08-26T22:40:27.855Z,20.12
2022-08-26T22:42:58.781Z,20.08
2022-08-26T22:45:31.034Z,20.06
2022-08-26T22:48:01.117Z,20.06
2022-08-26T22:50:29.835Z,20.03
2022-08-26T22:52:58.347Z,20.01
2022-08-26T22:55:26.822Z,19.96
2022-08-26T22:57:55.547Z,19.91
2022-08-26T23:00:31.887Z,19.87
2022-08-26T23:03:02.452Z,19.83
2022-08-26T23:05:31.033Z,19.80
2022-08-26T23:07:59.648Z,19.75
2022-08-26T23:10:28.465Z,19.71
2022-08-26T23:12:56.939Z,19.69
2022-08-26T23:15:25.936Z,19.68
2022-08-26T23:17:58.439Z,19.69
2022-08-26T23:20:28.986Z,19.70
2022-08-26T23:22:58.092Z,19.70
2022-08-26T23:25:28.998Z,19.70
2022-08-26T23:27:58.792Z,19.71
2022-08-26T23:30:29.655Z,19.71
2022-08-26T23:32:58.427Z,19.71
2022-08-26T23:35:28.192Z,19.70
2022-08-26T23:37:58.336Z,19.70
2022-08-26T23:40:31.257Z,19.69
2022-08-26T23:43:02.740Z,19.68
2022-08-26T23:45:32.401Z,19.66
2022-08-26T23:48:00.874Z,19.63
2022-08-26T23:50:45.950Z,19.58
2022-08-26T23:53:18.938Z,19.52
2022-08-26T23:55:48.877Z,19.48
2022-08-26T23:58:19.020Z,19.47
